Time,TemperatureF,DewpointF,PressureIn,WindDirection,WindDirectionDegrees,WindSpeedMPH,WindSpeedGustMPH,Humidity,HourlyPrecipIn,Conditions,Clouds,dailyrainin,SoftwareType,DateUTC
2013-09-07 00:14:00,49.0,47.0,30.11,NNW,344,0.0,0.0,92,0.00,,,0.00,,2013-09-07 04:14:00,
2013-09-07 00:24:00,48.0,46.0,30.10,NNW,345,0.0,0.0,93,0.00,,,0.00,,2013-09-07 04:24:00,
2013-09-07 00:43:00,48.0,46.0,30.10,NNW,345,0.0,0.0,94,0.00,,,0.00,,2013-09-07 04:43:00,
2013-09-07 00:54:00,47.0,46.0,30.10,NNW,344,0.0,0.0,95,0.00,,,0.00,,2013-09-07 04:54:00,
2013-09-07 01:13:00,47.0,46.0,30.09,NNW,345,0.0,0.0,95,0.00,,,0.00,,2013-09-07 05:13:00,
2013-09-07 01:23:00,47.0,46.0,30.09,NNW,345,0.0,0.0,96,0.00,,,0.00,,2013-09-07 05:23:00,
2013-09-07 01:52:00,46.0,45.0,30.09,NNW,345,0.0,0.0,96,0.00,,,0.00,,2013-09-07 05:52:00,
2013-09-07 02:13:00,46.0,45.0,30.09,NNW,345,0.0,0.0,96,0.00,,,0.00,,2013-09-07 06:13:00,
2013-09-07 02:22:00,46.0,45.0,30.08,NNW,344,0.0,0.0,97,0.00,,,0.00,,2013-09-07 06:22:00,
2013-09-07 02:42:00,46.0,45.0,30.08,NNW,344,0.0,0.0,97,0.00,,,0.00,,2013-09-07 06:42:00,
2013-09-07 02:52:00,46.0,45.0,30.07,NNW,345,0.0,0.0,97,0.00,,,0.00,,2013-09-07 06:52:00,
2013-09-07 03:12:00,46.0,45.0,30.07,NNW,345,0.0,0.0,97,0.00,,,0.00,,2013-09-07 07:12:00,
2013-09-07 03:22:00,46.0,45.0,30.07,NNW,345,0.0,0.0,97,0.00,,,0.00,,2013-09-07 07:22:00,
2013-09-07 03:42:00,46.0,45.0,30.07,NNW,345,0.0,0.0,98,0.00,,,0.00,,2013-09-07 07:42:00,
2013-09-07 03:52:00,46.0,45.0,30.07,NNW,345,0.0,0.0,98,0.00,,,0.00,,2013-09-07 07:52:00,
2013-09-07 04:12:00,46.0,45.0,30.07,NNW,345,0.0,0.0,98,0.00,,,0.00,,2013-09-07 08:12:00,
2013-09-07 04:22:00,45.0,44.0,30.07,NNW,345,0.0,0.0,98,0.00,,,0.00,,2013-09-07 08:22:00,
2013-09-07 04:43:00,45.0,44.0,30.07,NNW,344,0.0,0.0,98,0.00,,,0.00,,2013-09-07 08:43:00,
2013-09-07 04:53:00,45.0,44.0,30.07,NNW,345,0.0,0.0,98,0.00,,,0.00,,2013-09-07 08:53:00,
2013-09-07 05:12:00,45.0,44.0,30.07,NNW,344,0.0,0.0,98,0.00,,,0.00,,2013-09-07 09:12:00,
2013-09-07 05:21:00,45.0,44.0,30.07,NNW,344,0.0,0.0,98,0.00,,,0.00,,2013-09-07 09:21:00,
2013-09-07 05:42:00,44.0,43.0,30.06,NNW,344,0.0,0.0,98,0.00,,,0.00,,2013-09-07 09:42:00,
2013-09-07 05:52:00,44.0,43.0,30.06,NNW,344,0.0,0.0,98,0.00,,,0.00,,2013-09-07 09:52:00,
2013-09-07 06:11:00,44.0,43.0,30.06,NNW,345,0.0,0.0,98,0.00,,,0.00,,2013-09-07 10:11:00,
2013-09-07 06:21:00,44.0,44.0,30.06,NNW,344,0.0,0.0,99,0.00,,,0.00,,2013-09-07 10:21:00,
2013-09-07 06:41:00,44.0,43.0,30.06,NNW,345,0.0,0.0,98,0.00,,,0.00,,2013-09-07 10:41:00,
2013-09-07 06:52:00,44.0,44.0,30.07,NNW,344,0.0,0.0,99,0.00,,,0.00,,2013-09-07 10:52:00,
2013-09-07 07:13:00,44.0,44.0,30.07,NNW,345,0.0,0.0,99,0.00,,,0.00,,2013-09-07 11:13:00,
2013-09-07 07:23:00,44.0,44.0,30.06,NNW,345,0.0,0.0,99,0.00,,,0.00,,2013-09-07 11:23:00,
2013-09-07 07:43:00,45.0,45.0,30.06,NNW,345,0.0,0.0,99,0.00,,,0.00,,2013-09-07 11:43:00,
2013-09-07 07:53:00,46.0,46.0,30.07,NNW,345,0.0,0.0,100,0.00,,,0.00,,2013-09-07 11:53:00,
2013-09-07 08:12:00,46.0,46.0,30.07,NNW,344,0.0,0.0,100,0.00,,,0.00,,2013-09-07 12:12:00,
2013-09-07 08:22:00,48.0,48.0,30.06,NNW,345,0.0,0.0,100,0.00,,,0.00,,2013-09-07 12:22:00,
2013-09-07 08:42:00,49.0,49.0,30.05,NNW,344,0.0,0.0,100,0.00,,,0.00,,2013-09-07 12:42:00,
2013-09-07 08:52:00,50.0,50.0,30.05,NNW,343,0.0,1.0,100,0.00,,,0.00,,2013-09-07 12:52:00,
2013-09-07 09:12:00,51.0,51.0,30.04,NNW,343,0.0,1.0,100,0.00,,,0.00,,2013-09-07 13:12:00,
2013-09-07 09:21:00,55.0,53.0,30.04,NNW,338,0.0,3.0,92,0.00,,,0.00,,2013-09-07 13:21:00,
2013-09-07 09:52:00,59.0,54.0,30.03,NNW,344,0.0,1.0,84,0.00,,,0.00,,2013-09-07 13:52:00,
2013-09-07 13:43:00,78.0,56.0,29.97,North,6,0.0,1.0,47,0.00,,,0.00,,2013-09-07 17:43:00,
2013-09-07 14:22:00,80.0,49.0,29.95,North,6,1.0,6.0,34,0.00,,,0.00,,2013-09-07 18:22:00,
2013-09-07 14:43:00,81.0,54.0,29.94,North,4,0.0,5.0,39,0.00,,,0.00,,2013-09-07 18:43:00,
2013-09-07 14:52:00,80.0,52.0,29.94,North,4,0.0,5.0,38,0.00,,,0.00,,2013-09-07 18:52:00,
2013-09-07 15:11:00,80.0,53.0,29.93,North,4,0.0,1.0,39,0.00,,,0.00,,2013-09-07 19:11:00,
2013-09-07 15:22:00,79.0,55.0,29.92,North,5,0.0,1.0,43,0.00,,,0.00,,2013-09-07 19:22:00,
2013-09-07 15:53:00,78.0,55.0,29.92,North,5,0.0,1.0,45,0.00,,,0.00,,2013-09-07 19:53:00,
2013-09-07 16:12:00,78.0,57.0,29.91,North,6,0.0,2.0,49,0.00,,,0.00,,2013-09-07 20:12:00,
2013-09-07 16:22:00,78.0,57.0,29.91,North,3,1.0,2.0,49,0.00,,,0.00,,2013-09-07 20:22:00,
2013-09-07 16:53:00,77.0,57.0,29.91,North,5,2.0,5.0,50,0.00,,,0.00,,2013-09-07 20:53:00,
2013-09-07 17:12:00,77.0,59.0,29.91,North,6,1.0,2.0,53,0.00,,,0.00,,2013-09-07 21:12:00,
2013-09-07 17:22:00,76.0,56.0,29.91,North,6,0.0,4.0,50,0.00,,,0.00,,2013-09-07 21:22:00,
2013-09-07 17:44:00,75.0,57.0,29.91,North,3,0.0,3.0,53,0.00,,,0.00,,2013-09-07 21:44:00,
2013-09-07 17:54:00,74.0,57.0,29.91,North,5,0.0,3.0,56,0.00,,,0.00,,2013-09-07 21:54:00,
2013-09-07 18:13:00,74.0,58.0,29.91,North,5,0.0,1.0,58,0.00,,,0.00,,2013-09-07 22:13:00,
2013-09-07 18:24:00,72.0,58.0,29.91,North,5,0.0,0.0,62,0.00,,,0.00,,2013-09-07 22:24:00,
2013-09-07 18:43:00,72.0,59.0,29.91,North,5,0.0,1.0,63,0.00,,,0.00,,2013-09-07 22:43:00,
2013-09-07 18:53:00,71.0,58.0,29.91,North,4,0.0,1.0,63,0.00,,,0.00,,2013-09-07 22:53:00,
2013-09-07 19:12:00,70.0,57.0,29.91,North,5,0.0,0.0,64,0.00,,,0.00,,2013-09-07 23:12:00,
2013-09-07 19:23:00,70.0,58.0,29.91,North,5,0.0,1.0,65,0.00,,,0.00,,2013-09-07 23:23:00,
2013-09-07 19:42:00,69.0,57.0,29.91,North,3,0.0,1.0,65,0.00,,,0.00,,2013-09-07 23:42:00,
2013-09-07 19:53:00,69.0,58.0,29.91,North,5,0.0,1.0,67,0.00,,,0.00,,2013-09-07 23:53:00,
2013-09-07 20:11:00,69.0,59.0,29.91,North,3,0.0,1.0,70,0.00,,,0.00,,2013-09-08 00:11:00,
2013-09-07 20:22:00,67.0,60.0,29.91,North,4,0.0,0.0,78,0.00,,,0.00,,2013-09-08 00:22:00,
2013-09-07 20:42:00,66.0,60.0,29.91,North,3,0.0,0.0,82,0.00,,,0.00,,2013-09-08 00:42:00,
2013-09-07 20:52:00,64.0,60.0,29.90,North,4,0.0,0.0,87,0.00,,,0.00,,2013-09-08 00:52:00,
2013-09-07 21:11:00,64.0,61.0,29.90,North,4,0.0,0.0,89,0.00,,,0.00,,2013-09-08 01:11:00,
2013-09-07 21:22:00,63.0,60.0,29.90,North,4,0.0,0.0,91,0.00,,,0.00,,2013-09-08 01:22:00,
2013-09-07 21:42:00,63.0,61.0,29.91,North,3,0.0,0.0,92,0.00,,,0.00,,2013-09-08 01:42:00,
2013-09-07 21:52:00,62.0,60.0,29.91,North,4,0.0,0.0,93,0.01,,,0.01,,2013-09-08 01:52:00,
2013-09-07 22:12:00,62.0,60.0,29.91,North,4,0.0,0.0,93,0.01,,,0.01,,2013-09-08 02:12:00,
2013-09-07 22:23:00,62.0,61.0,29.90,North,3,0.0,0.0,95,0.01,,,0.01,,2013-09-08 02:23:00,
2013-09-07 22:43:00,62.0,61.0,29.90,North,3,0.0,0.0,95,0.01,,,0.01,,2013-09-08 02:43:00,
2013-09-07 22:52:00,62.0,61.0,29.90,North,3,0.0,0.0,96,0.00,,,0.01,,2013-09-08 02:52:00,
2013-09-07 23:12:00,62.0,61.0,29.90,North,4,0.0,0.0,96,0.00,,,0.01,,2013-09-08 03:12:00,
2013-09-07 23:23:00,61.0,59.0,29.88,North,4,0.0,1.0,94,0.00,,,0.01,,2013-09-08 03:23:00,
2013-09-07 23:44:00,61.0,59.0,29.88,North,3,0.0,0.0,93,0.00,,,0.01,,2013-09-08 03:44:00,
2013-09-07 23:54:00,61.0,59.0,29.87,North,4,0.0,0.0,93,0.00,,,0.01,,2013-09-08 03:54:00,